sensor_id;sensor_type;location;lat;lon;timestamp;temperature;humidity
1383;DHT22;685;47.196;11.880;2023-05-07T00:00:40;13.90;99.90
1383;DHT22;685;47.196;11.880;2023-05-07T00:03:09;13.80;99.90
1383;DHT22;685;47.196;11.880;2023-05-07T00:05:36;13.80;99.90
1383;DHT22;685;47.196;11.880;2023-05-07T00:08:04;13.50;99.90
1383;DHT22;685;47.196;11.880;2023-05-07T00:10:31;13.40;99.90
1383;DHT22;685;47.196;11.880;2023-05-07T00:12:58;13.60;99.90
1383;DHT22;685;47.196;11.880;2023-05-07T00:15:26;13.70;99.90
1383;DHT22;685;47.196;11.880;2023-05-07T00:17:53;13.70;99.90
1383;DHT22;685;47.196;11.880;2023-05-07T00:20:21;13.80;99.90
1383;DHT22;685;47.196;11.880;2023-05-07T00:22:48;13.70;99.90
1383;DHT22;685;47.196;11.880;2023-05-07T00:25:15;13.70;99.90
1383;DHT22;685;47.196;11.880;2023-05-07T00:27:42;13.70;99.90
1383;DHT22;685;47.196;11.880;2023-05-07T00:30:10;13.70;99.90
1383;DHT22;685;47.196;11.880;2023-05-07T00:32:37;13.70;99.90
1383;DHT22;685;47.196;11.880;2023-05-07T00:35:05;13.60;99.90
1383;DHT22;685;47.196;11.880;2023-05-07T00:37:34;13.50;99.90
1383;DHT22;685;47.196;11.880;2023-05-07T00:40:01;13.70;99.90
1383;DHT22;685;47.196;11.880;2023-05-07T00:42:30;13.70;99.90
1383;DHT22;685;47.196;11.880;2023-05-07T00:44:57;13.70;99.90
1383;DHT22;685;47.196;11.880;2023-05-07T00:47:25;13.40;99.90
1383;DHT22;685;47.196;11.880;2023-05-07T00:49:52;13.20;99.90
1383;DHT22;685;47.196;11.880;2023-05-07T00:52:20;13.10;99.90
1383;DHT22;685;47.196;11.880;2023-05-07T00:54:48;13.10;99.90
1383;DHT22;685;47.196;11.880;2023-05-07T00:57:16;13.40;99.90
1383;DHT22;685;47.196;11.880;2023-05-07T00:59:42;13.40;99.90
1383;DHT22;685;47.196;11.880;2023-05-07T01:02:10;13.40;99.90
1383;DHT22;685;47.196;11.880;2023-05-07T01:04:37;13.40;99.90
1383;DHT22;685;47.196;11.880;2023-05-07T01:07:05;13.50;99.90
1383;DHT22;685;47.196;11.880;2023-05-07T01:09:32;13.40;99.90
1383;DHT22;685;47.196;11.880;2023-05-07T01:12:03;13.40;99.90
1383;DHT22;685;47.196;11.880;2023-05-07T01:14:30;13.50;99.90
1383;DHT22;685;47.196;11.880;2023-05-07T01:17:04;13.40;99.90
1383;DHT22;685;47.196;11.880;2023-05-07T01:19:32;13.40;99.90
1383;DHT22;685;47.196;11.880;2023-05-07T01:22:03;13.40;99.90
1383;DHT22;685;47.196;11.880;2023-05-07T01:24:32;13.50;99.90
1383;DHT22;685;47.196;11.880;2023-05-07T01:26:59;13.50;99.90
1383;DHT22;685;47.196;11.880;2023-05-07T01:29:28;13.40;99.90
1383;DHT22;685;47.196;11.880;2023-05-07T01:31:56;13.30;99.90
1383;DHT22;685;47.196;11.880;2023-05-07T01:34:24;13.20;99.90
1383;DHT22;685;47.196;11.880;2023-05-07T01:36:52;13.30;99.90
1383;DHT22;685;47.196;11.880;2023-05-07T01:39:21;12.90;99.90
1383;DHT22;685;47.196;11.880;2023-05-07T01:41:50;12.90;99.90
1383;DHT22;685;47.196;11.880;2023-05-07T01:44:18;13.20;99.90
1383;DHT22;685;47.196;11.880;2023-05-07T01:46:46;13.20;99.90
1383;DHT22;685;47.196;11.880;2023-05-07T01:49:15;13.20;99.90
1383;DHT22;685;47.196;11.880;2023-05-07T01:51:42;13.20;99.90
1383;DHT22;685;47.196;11.880;2023-05-07T01:54:09;13.30;99.90
1383;DHT22;685;47.196;11.880;2023-05-07T01:56:36;13.20;99.90
1383;DHT22;685;47.196;11.880;2023-05-07T01:59:05;13.30;99.90
1383;DHT22;685;47.196;11.880;2023-05-07T02:01:32;13.10;99.90
1383;DHT22;685;47.196;11.880;2023-05-07T02:03:58;13.10;99.90
1383;DHT22;685;47.196;11.880;2023-05-07T02:06:25;12.90;99.90
1383;DHT22;685;47.196;11.880;2023-05-07T02:08:52;12.90;99.90
1383;DHT22;685;47.196;11.880;2023-05-07T02:11:19;12.80;99.90
1383;DHT22;685;47.196;11.880;2023-05-07T02:13:46;12.90;99.90
1383;DHT22;685;47.196;11.880;2023-05-07T02:16:14;13.10;99.90
1383;DHT22;685;47.196;11.880;2023-05-07T02:18:41;13.00;99.90
1383;DHT22;685;47.196;11.880;2023-05-07T02:21:08;13.10;99.90
1383;DHT22;685;47.196;11.880;2023-05-07T02:23:35;13.00;99.90
1383;DHT22;685;47.196;11.880;2023-05-07T02:26:03;13.00;99.90
1383;DHT22;685;47.196;11.880;2023-05-07T02:28:30;13.10;99.90
1383;DHT22;685;47.196;11.880;2023-05-07T02:30:57;13.20;99.90
1383;DHT22;685;47.196;11.880;2023-05-07T02:33:27;13.10;99.90
1383;DHT22;685;47.196;11.880;2023-05-07T02:35:54;13.10;99.90
1383;DHT22;685;47.196;11.880;2023-05-07T02:38:22;13.00;99.90
1383;DHT22;685;47.196;11.880;2023-05-07T02:40:49;13.10;99.90
1383;DHT22;685;47.196;11.880;2023-05-07T02:43:16;13.10;99.90
1383;DHT22;685;47.196;11.880;2023-05-07T02:45:43;13.20;99.90
1383;DHT22;685;47.196;11.880;2023-05-07T02:48:10;13.10;99.90
1383;DHT22;685;47.196;11.880;2023-05-07T02:50:38;13.10;99.90
1383;DHT22;685;47.196;11.880;2023-05-07T02:53:05;13.10;99.90
1383;DHT22;685;47.196;11.880;2023-05-07T02:55:32;13.00;99.90
1383;DHT22;685;47.196;11.880;2023-05-07T02:57:59;13.10;99.90
1383;DHT22;685;47.196;11.880;2023-05-07T03:00:26;13.10;99.90
1383;DHT22;685;47.196;11.880;2023-05-07T03:02:52;13.00;99.90
1383;DHT22;685;47.196;11.880;2023-05-07T03:05:20;13.00;99.90
1383;DHT22;685;47.196;11.880;2023-05-07T03:07:48;13.00;99.90
1383;DHT22;685;47.196;11.880;2023-05-07T03:10:15;13.00;99.90
1383;DHT22;685;47.196;11.880;2023-05-07T03:12:42;12.90;99.90
1383;DHT22;685;47.196;11.880;2023-05-07T03:15:10;12.80;99.90
1383;DHT22;685;47.196;11.880;2023-05-07T03:17:37;12.80;99.90
1383;DHT22;685;47.196;11.880;2023-05-07T03:20:05;12.90;99.90
1383;DHT22;685;47.196;11.880;2023-05-07T03:22:32;13.00;99.90
1383;DHT22;685;47.196;11.880;2023-05-07T03:25:00;12.90;99.90
1383;DHT22;685;47.196;11.880;2023-05-07T03:27:27;13.00;99.90
1383;DHT22;685;47.196;11.880;2023-05-07T03:29:54;12.80;99.90
1383;DHT22;685;47.196;11.880;2023-05-07T03:32:21;12.80;99.90
1383;DHT22;685;47.196;11.880;2023-05-07T03:34:48;12.80;99.90
1383;DHT22;685;47.196;11.880;2023-05-07T03:37:15;12.80;99.90
1383;DHT22;685;47.196;11.880;2023-05-07T03:39:42;12.80;99.90
1383;DHT22;685;47.196;11.880;2023-05-07T03:42:10;12.80;99.90
1383;DHT22;685;47.196;11.880;2023-05-07T03:44:37;12.70;99.90
1383;DHT22;685;47.196;11.880;2023-05-07T03:47:04;12.80;99.90
1383;DHT22;685;47.196;11.880;2023-05-07T03:49:31;12.80;99.90
1383;DHT22;685;47.196;11.880;2023-05-07T03:51:58;12.70;99.90
1383;DHT22;685;47.196;11.880;2023-05-07T03:54:25;12.70;99.90
1383;DHT22;685;47.196;11.880;2023-05-07T03:56:52;12.70;99.90
1383;DHT22;685;47.196;11.880;2023-05-07T03:59:20;12.70;99.90
1383;DHT22;685;47.196;11.880;2023-05-07T04:01:47;12.70;99.90
1383;DHT22;685;47.196;11.880;2023-05-07T04:04:14;12.70;99.90
1383;DHT22;685;47.196;11.880;2023-05-07T04:06:41;12.70;99.90
1383;DHT22;685;47.196;11.880;2023-05-07T04:09:08;12.70;99.90
1383;DHT22;685;47.196;11.880;2023-05-07T04:11:35;12.60;99.90
1383;DHT22;685;47.196;11.880;2023-05-07T04:14:02;12.30;99.90
1383;DHT22;685;47.196;11.880;2023-05-07T04:16:30;12.30;99.90
1383;DHT22;685;47.196;11.880;2023-05-07T04:18:57;12.40;99.90
1383;DHT22;685;47.196;11.880;2023-05-07T04:21:24;12.50;99.90
1383;DHT22;685;47.196;11.880;2023-05-07T04:23:52;12.40;99.90
1383;DHT22;685;47.196;11.880;2023-05-07T04:26:18;12.40;99.90
1383;DHT22;685;47.196;11.880;2023-05-07T04:28:46;12.50;99.90
1383;DHT22;685;47.196;11.880;2023-05-07T04:31:13;12.50;99.90
1383;DHT22;685;47.196;11.880;2023-05-07T04:33:42;12.50;99.90
1383;DHT22;685;47.196;11.880;2023-05-07T04:36:09;12.50;99.90
1383;DHT22;685;47.196;11.880;2023-05-07T04:38:36;12.60;99.90
1383;DHT22;685;47.196;11.880;2023-05-07T04:41:05;12.20;99.90
1383;DHT22;685;47.196;11.880;2023-05-07T04:43:32;12.30;99.90
1383;DHT22;685;47.196;11.880;2023-05-07T04:46:00;12.30;99.90
1383;DHT22;685;47.196;11.880;2023-05-07T04:48:27;12.50;99.90
1383;DHT22;685;47.196;11.880;2023-05-07T04:50:55;12.10;99.90
1383;DHT22;685;47.196;11.880;2023-05-07T04:53:23;11.90;99.90
1383;DHT22;685;47.196;11.880;2023-05-07T04:55:55;11.90;99.90
1383;DHT22;685;47.196;11.880;2023-05-07T04:58:22;12.10;99.90
1383;DHT22;685;47.196;11.880;2023-05-07T05:00:49;12.20;99.90
1383;DHT22;685;47.196;11.880;2023-05-07T05:03:16;12.30;99.90
1383;DHT22;685;47.196;11.880;2023-05-07T05:05:43;12.50;99.90
1383;DHT22;685;47.196;11.880;2023-05-07T05:08:11;12.40;99.90
1383;DHT22;685;47.196;11.880;2023-05-07T05:10:38;12.40;99.90
1383;DHT22;685;47.196;11.880;2023-05-07T05:13:06;12.50;99.90
1383;DHT22;685;47.196;11.880;2023-05-07T05:15:33;12.60;99.90
1383;DHT22;685;47.196;11.880;2023-05-07T05:18:00;12.50;99.90
1383;DHT22;685;47.196;11.880;2023-05-07T05:20:27;12.60;99.90
1383;DHT22;685;47.196;11.880;2023-05-07T05:22:54;12.60;99.90
1383;DHT22;685;47.196;11.880;2023-05-07T05:25:22;12.80;99.90
1383;DHT22;685;47.196;11.880;2023-05-07T05:27:49;12.80;99.90
1383;DHT22;685;47.196;11.880;2023-05-07T05:30:16;12.50;99.90
1383;DHT22;685;47.196;11.880;2023-05-07T05:32:43;12.60;99.90
1383;DHT22;685;47.196;11.880;2023-05-07T05:35:09;12.70;99.90
1383;DHT22;685;47.196;11.880;2023-05-07T05:37:36;12.80;99.90
1383;DHT22;685;47.196;11.880;2023-05-07T05:40:04;12.90;99.90
1383;DHT22;685;47.196;11.880;2023-05-07T05:42:32;12.90;99.90
1383;DHT22;685;47.196;11.880;2023-05-07T05:44:59;12.90;99.90
1383;DHT22;685;47.196;11.880;2023-05-07T05:47:26;13.00;99.90
1383;DHT22;685;47.196;11.880;2023-05-07T05:49:53;13.00;99.90
1383;DHT22;685;47.196;11.880;2023-05-07T05:52:20;13.10;99.90
1383;DHT22;685;47.196;11.880;2023-05-07T05:54:49;13.10;99.90
1383;DHT22;685;47.196;11.880;2023-05-07T05:57:16;12.90;99.90
1383;DHT22;685;47.196;11.880;2023-05-07T05:59:44;12.80;99.90
1383;DHT22;685;47.196;11.880;2023-05-07T06:02:12;12.70;99.90
1383;DHT22;685;47.196;11.880;2023-05-07T06:04:39;12.80;99.90
1383;DHT22;685;47.196;11.880;2023-05-07T06:07:08;12.90;99.90
1383;DHT22;685;47.196;11.880;2023-05-07T06:09:34;13.10;99.90
1383;DHT22;685;47.196;11.880;2023-05-07T06:12:01;13.20;99.90
1383;DHT22;685;47.196;11.880;2023-05-07T06:14:28;13.40;99.90
1383;DHT22;685;47.196;11.880;2023-05-07T06:16:57;13.50;99.90
1383;DHT22;685;47.196;11.880;2023-05-07T06:19:23;13.50;99.90
1383;DHT22;685;47.196;11.880;2023-05-07T06:21:52;13.60;99.90
1383;DHT22;685;47.196;11.880;2023-05-07T06:24:19;13.50;99.90
1383;DHT22;685;47.196;11.880;2023-05-07T06:26:45;13.40;99.90
1383;DHT22;685;47.196;11.880;2023-05-07T06:29:12;13.30;99.90
1383;DHT22;685;47.196;11.880;2023-05-07T06:31:39;13.40;99.90
1383;DHT22;685;47.196;11.880;2023-05-07T06:34:07;13.60;99.90
1383;DHT22;685;47.196;11.880;2023-05-07T06:36:34;13.70;99.90
1383;DHT22;685;47.196;11.880;2023-05-07T06:39:02;13.50;99.90
1383;DHT22;685;47.196;11.880;2023-05-07T06:41:28;13.50;99.90
1383;DHT22;685;47.196;11.880;2023-05-07T06:43:55;13.50;99.90
1383;DHT22;685;47.196;11.880;2023-05-07T06:46:22;13.50;99.90
1383;DHT22;685;47.196;11.880;2023-05-07T06:48:49;13.80;99.90
1383;DHT22;685;47.196;11.880;2023-05-07T06:51:17;14.00;99.90
1383;DHT22;685;47.196;11.880;2023-05-07T06:53:44;14.00;99.90
1383;DHT22;685;47.196;11.880;2023-05-07T06:56:11;14.20;99.90
1383;DHT22;685;47.196;11.880;2023-05-07T06:58:38;14.10;99.90
1383;DHT22;685;47.196;11.880;2023-05-07T07:01:05;14.00;99.90
1383;DHT22;685;47.196;11.880;2023-05-07T07:03:32;13.90;99.90
1383;DHT22;685;47.196;11.880;2023-05-07T07:05:59;13.90;99.90
1383;DHT22;685;47.196;11.880;2023-05-07T07:08:28;14.00;99.90
1383;DHT22;685;47.196;11.880;2023-05-07T07:10:55;14.20;99.90
1383;DHT22;685;47.196;11.880;2023-05-07T07:13:22;14.30;99.90
1383;DHT22;685;47.196;11.880;2023-05-07T07:15:49;14.30;99.90
1383;DHT22;685;47.196;11.880;2023-05-07T07:18:16;14.40;99.90
1383;DHT22;685;47.196;11.880;2023-05-07T07:20:43;14.40;99.90
1383;DHT22;685;47.196;11.880;2023-05-07T07:23:10;14.50;99.90
1383;DHT22;685;47.196;11.880;2023-05-07T07:25:39;14.60;99.90
1383;DHT22;685;47.196;11.880;2023-05-07T07:28:06;14.70;99.90
1383;DHT22;685;47.196;11.880;2023-05-07T07:30:33;14.80;99.90
1383;DHT22;685;47.196;11.880;2023-05-07T07:33:00;14.80;99.90
1383;DHT22;685;47.196;11.880;2023-05-07T07:35:28;14.80;99.90
1383;DHT22;685;47.196;11.880;2023-05-07T07:37:55;14.80;99.90
1383;DHT22;685;47.196;11.880;2023-05-07T07:40:22;14.90;99.90
1383;DHT22;685;47.196;11.880;2023-05-07T07:42:51;15.00;99.90
1383;DHT22;685;47.196;11.880;2023-05-07T07:45:18;15.10;99.90
1383;DHT22;685;47.196;11.880;2023-05-07T07:47:45;15.20;99.90
1383;DHT22;685;47.196;11.880;2023-05-07T07:50:12;15.30;99.90
1383;DHT22;685;47.196;11.880;2023-05-07T07:52:39;15.40;99.90
1383;DHT22;685;47.196;11.880;2023-05-07T07:55:07;15.40;99.90
1383;DHT22;685;47.196;11.880;2023-05-07T07:57:34;15.50;99.90
1383;DHT22;685;47.196;11.880;2023-05-07T08:00:03;15.60;99.90
1383;DHT22;685;47.196;11.880;2023-05-07T08:02:30;15.70;99.90
1383;DHT22;685;47.196;11.880;2023-05-07T08:04:57;15.80;99.90
1383;DHT22;685;47.196;11.880;2023-05-07T08:07:23;15.70;99.90
1383;DHT22;685;47.196;11.880;2023-05-07T08:09:50;15.70;99.90
1383;DHT22;685;47.196;11.880;2023-05-07T08:12:17;15.80;99.90
1383;DHT22;685;47.196;11.880;2023-05-07T08:14:44;15.90;99.90
1383;DHT22;685;47.196;11.880;2023-05-07T08:17:12;16.10;99.90
1383;DHT22;685;47.196;11.880;2023-05-07T08:19:41;16.10;99.90
1383;DHT22;685;47.196;11.880;2023-05-07T08:22:08;16.20;99.90
1383;DHT22;685;47.196;11.880;2023-05-07T08:24:36;16.20;99.90
1383;DHT22;685;47.196;11.880;2023-05-07T08:27:03;16.30;99.90
1383;DHT22;685;47.196;11.880;2023-05-07T08:29:30;16.40;99.90
1383;DHT22;685;47.196;11.880;2023-05-07T08:31:56;16.50;99.90
1383;DHT22;685;47.196;11.880;2023-05-07T08:34:25;16.60;99.90
1383;DHT22;685;47.196;11.880;2023-05-07T08:36:52;16.60;99.90
1383;DHT22;685;47.196;11.880;2023-05-07T08:39:18;16.80;99.90
1383;DHT22;685;47.196;11.880;2023-05-07T08:41:45;16.90;99.90
1383;DHT22;685;47.196;11.880;2023-05-07T08:44:13;17.10;99.90
1383;DHT22;685;47.196;11.880;2023-05-07T08:46:41;17.00;99.90
1383;DHT22;685;47.196;11.880;2023-05-07T08:49:09;16.90;99.90
1383;DHT22;685;47.196;11.880;2023-05-07T08:51:37;17.00;99.90
1383;DHT22;685;47.196;11.880;2023-05-07T08:54:05;17.10;99.90
1383;DHT22;685;47.196;11.880;2023-05-07T08:56:33;17.20;99.90
1383;DHT22;685;47.196;11.880;2023-05-07T08:59:00;17.20;99.90
1383;DHT22;685;47.196;11.880;2023-05-07T09:01:27;17.30;99.90
1383;DHT22;685;47.196;11.880;2023-05-07T09:03:54;17.40;99.90
1383;DHT22;685;47.196;11.880;2023-05-07T09:06:21;17.60;99.90
1383;DHT22;685;47.196;11.880;2023-05-07T09:08:53;17.80;99.90
1383;DHT22;685;47.196;11.880;2023-05-07T09:11:21;17.80;99.90
1383;DHT22;685;47.196;11.880;2023-05-07T09:13:48;17.80;99.90
1383;DHT22;685;47.196;11.880;2023-05-07T09:16:15;17.90;99.90
1383;DHT22;685;47.196;11.880;2023-05-07T09:18:43;18.00;99.90
1383;DHT22;685;47.196;11.880;2023-05-07T09:21:10;17.90;99.90
1383;DHT22;685;47.196;11.880;2023-05-07T09:23:38;18.00;99.90
1383;DHT22;685;47.196;11.880;2023-05-07T09:26:06;18.10;99.90
1383;DHT22;685;47.196;11.880;2023-05-07T09:28:38;18.10;99.90
1383;DHT22;685;47.196;11.880;2023-05-07T09:31:06;18.60;99.90
1383;DHT22;685;47.196;11.880;2023-05-07T09:33:33;18.60;99.90
1383;DHT22;685;47.196;11.880;2023-05-07T09:36:03;18.50;99.90
1383;DHT22;685;47.196;11.880;2023-05-07T09:38:31;18.50;99.90
1383;DHT22;685;47.196;11.880;2023-05-07T09:41:10;18.40;99.90
1383;DHT22;685;47.196;11.880;2023-05-07T09:43:38;18.50;99.90
1383;DHT22;685;47.196;11.880;2023-05-07T09:46:07;18.60;99.90
1383;DHT22;685;47.196;11.880;2023-05-07T09:48:39;18.70;99.90
1383;DHT22;685;47.196;11.880;2023-05-07T09:51:11;18.70;99.90
1383;DHT22;685;47.196;11.880;2023-05-07T09:53:42;18.80;99.90
1383;DHT22;685;47.196;11.880;2023-05-07T09:56:13;18.90;99.90
1383;DHT22;685;47.196;11.880;2023-05-07T09:58:42;19.00;99.90
1383;DHT22;685;47.196;11.880;2023-05-07T10:01:11;18.90;99.90
1383;DHT22;685;47.196;11.880;2023-05-07T10:03:40;19.00;99.90
1383;DHT22;685;47.196;11.880;2023-05-07T10:06:09;19.00;99.90
1383;DHT22;685;47.196;11.880;2023-05-07T10:08:36;19.00;99.90
1383;DHT22;685;47.196;11.880;2023-05-07T10:11:04;19.10;99.90
1383;DHT22;685;47.196;11.880;2023-05-07T10:13:33;19.40;99.90
1383;DHT22;685;47.196;11.880;2023-05-07T10:16:03;19.40;99.90
1383;DHT22;685;47.196;11.880;2023-05-07T10:18:31;19.40;99.90
1383;DHT22;685;47.196;11.880;2023-05-07T10:21:04;19.50;99.90
1383;DHT22;685;47.196;11.880;2023-05-07T10:23:33;19.50;99.90
1383;DHT22;685;47.196;11.880;2023-05-07T10:26:03;19.40;99.90
1383;DHT22;685;47.196;11.880;2023-05-07T10:28:34;19.40;99.90
1383;DHT22;685;47.196;11.880;2023-05-07T10:31:13;19.50;99.90
1383;DHT22;685;47.196;11.880;2023-05-07T10:33:42;19.30;99.90
1383;DHT22;685;47.196;11.880;2023-05-07T10:36:11;19.50;99.90
1383;DHT22;685;47.196;11.880;2023-05-07T10:38:38;19.60;99.90
1383;DHT22;685;47.196;11.880;2023-05-07T10:41:06;19.80;99.90
1383;DHT22;685;47.196;11.880;2023-05-07T10:43:45;19.90;99.90
1383;DHT22;685;47.196;11.880;2023-05-07T10:46:15;19.80;99.90
1383;DHT22;685;47.196;11.880;2023-05-07T10:49:10;20.00;99.90
1383;DHT22;685;47.196;11.880;2023-05-07T10:51:41;20.10;99.90
1383;DHT22;685;47.196;11.880;2023-05-07T10:54:23;20.00;99.90
1383;DHT22;685;47.196;11.880;2023-05-07T10:56:50;20.10;99.90
1383;DHT22;685;47.196;11.880;2023-05-07T10:59:34;20.10;99.90
1383;DHT22;685;47.196;11.880;2023-05-07T11:02:07;20.00;99.90
1383;DHT22;685;47.196;11.880;2023-05-07T11:04:37;20.10;99.90
1383;DHT22;685;47.196;11.880;2023-05-07T11:07:31;20.20;99.90
1383;DHT22;685;47.196;11.880;2023-05-07T11:10:05;20.40;99.90
1383;DHT22;685;47.196;11.880;2023-05-07T11:12:49;20.40;99.90
1383;DHT22;685;47.196;11.880;2023-05-07T11:15:34;20.10;99.90
1383;DHT22;685;47.196;11.880;2023-05-07T11:18:01;20.30;99.90
1383;DHT22;685;47.196;11.880;2023-05-07T11:20:45;20.10;99.90
1383;DHT22;685;47.196;11.880;2023-05-07T11:26:13;20.00;99.90
1383;DHT22;685;47.196;11.880;2023-05-07T11:28:42;20.20;99.90
1383;DHT22;685;47.196;11.880;2023-05-07T11:31:10;20.10;99.90
1383;DHT22;685;47.196;11.880;2023-05-07T11:33:37;20.20;99.90
1383;DHT22;685;47.196;11.880;2023-05-07T11:36:05;20.10;99.90
1383;DHT22;685;47.196;11.880;2023-05-07T11:38:35;20.20;99.90
1383;DHT22;685;47.196;11.880;2023-05-07T11:41:03;20.40;99.90
1383;DHT22;685;47.196;11.880;2023-05-07T11:43:31;20.50;99.90
1383;DHT22;685;47.196;11.880;2023-05-07T11:46:05;20.60;99.90
1383;DHT22;685;47.196;11.880;2023-05-07T11:48:35;20.30;99.90
1383;DHT22;685;47.196;11.880;2023-05-07T11:51:03;20.90;99.90
1383;DHT22;685;47.196;11.880;2023-05-07T11:53:36;20.80;99.90
1383;DHT22;685;47.196;11.880;2023-05-07T11:56:06;20.60;99.90
1383;DHT22;685;47.196;11.880;2023-05-07T11:58:33;20.70;99.90
1383;DHT22;685;47.196;11.880;2023-05-07T12:01:00;20.70;99.90
1383;DHT22;685;47.196;11.880;2023-05-07T12:03:27;21.20;99.90
1383;DHT22;685;47.196;11.880;2023-05-07T12:05:56;21.20;99.90
1383;DHT22;685;47.196;11.880;2023-05-07T12:08:23;21.30;99.90
1383;DHT22;685;47.196;11.880;2023-05-07T12:10:50;21.00;99.90
1383;DHT22;685;47.196;11.880;2023-05-07T12:13:18;20.90;99.90
1383;DHT22;685;47.196;11.880;2023-05-07T12:15:45;21.00;99.90
1383;DHT22;685;47.196;11.880;2023-05-07T12:18:13;21.10;99.90
1383;DHT22;685;47.196;11.880;2023-05-07T12:20:40;21.00;99.90
1383;DHT22;685;47.196;11.880;2023-05-07T12:23:08;21.10;99.90
1383;DHT22;685;47.196;11.880;2023-05-07T12:25:36;21.10;99.90
1383;DHT22;685;47.196;11.880;2023-05-07T12:28:03;21.10;99.90
1383;DHT22;685;47.196;11.880;2023-05-07T12:30:31;21.10;99.90
1383;DHT22;685;47.196;11.880;2023-05-07T12:32:58;21.10;99.90
1383;DHT22;685;47.196;11.880;2023-05-07T12:35:28;21.20;99.90
1383;DHT22;685;47.196;11.880;2023-05-07T12:37:55;21.30;99.90
1383;DHT22;685;47.196;11.880;2023-05-07T12:40:35;21.20;99.90
1383;DHT22;685;47.196;11.880;2023-05-07T12:43:02;21.40;99.90
1383;DHT22;685;47.196;11.880;2023-05-07T12:45:29;21.30;99.90
1383;DHT22;685;47.196;11.880;2023-05-07T12:48:00;21.40;99.90
1383;DHT22;685;47.196;11.880;2023-05-07T12:50:31;21.40;99.90
1383;DHT22;685;47.196;11.880;2023-05-07T12:52:58;21.40;99.90
1383;DHT22;685;47.196;11.880;2023-05-07T12:55:29;21.50;99.90
1383;DHT22;685;47.196;11.880;2023-05-07T12:57:55;21.30;99.90
1383;DHT22;685;47.196;11.880;2023-05-07T13:00:36;21.50;99.90
1383;DHT22;685;47.196;11.880;2023-05-07T13:03:04;21.40;99.90
1383;DHT22;685;47.196;11.880;2023-05-07T13:05:31;21.50;99.90
1383;DHT22;685;47.196;11.880;2023-05-07T13:07:58;21.20;99.90
1383;DHT22;685;47.196;11.880;2023-05-07T13:10:27;21.20;99.90
1383;DHT22;685;47.196;11.880;2023-05-07T13:12:54;21.10;99.90
1383;DHT22;685;47.196;11.880;2023-05-07T13:15:21;21.00;99.90
1383;DHT22;685;47.196;11.880;2023-05-07T13:17:48;20.90;99.90
1383;DHT22;685;47.196;11.880;2023-05-07T13:20:15;20.90;99.90
1383;DHT22;685;47.196;11.880;2023-05-07T13:22:42;21.00;99.90
1383;DHT22;685;47.196;11.880;2023-05-07T13:25:09;21.20;99.90
1383;DHT22;685;47.196;11.880;2023-05-07T13:27:38;21.20;99.90
1383;DHT22;685;47.196;11.880;2023-05-07T13:30:06;21.10;99.90
1383;DHT22;685;47.196;11.880;2023-05-07T13:32:33;21.10;99.90
1383;DHT22;685;47.196;11.880;2023-05-07T13:35:00;21.10;99.90
1383;DHT22;685;47.196;11.880;2023-05-07T13:37:27;21.10;99.90
1383;DHT22;685;47.196;11.880;2023-05-07T13:39:54;21.10;99.90
1383;DHT22;685;47.196;11.880;2023-05-07T13:42:21;21.10;99.90
1383;DHT22;685;47.196;11.880;2023-05-07T13:44:49;21.00;99.90
1383;DHT22;685;47.196;11.880;2023-05-07T13:47:16;20.90;99.90
1383;DHT22;685;47.196;11.880;2023-05-07T13:49:43;20.90;99.90
1383;DHT22;685;47.196;11.880;2023-05-07T13:52:10;20.80;99.90
1383;DHT22;685;47.196;11.880;2023-05-07T13:54:37;20.70;99.90
1383;DHT22;685;47.196;11.880;2023-05-07T13:57:04;20.80;99.90
1383;DHT22;685;47.196;11.880;2023-05-07T13:59:31;20.80;99.90
1383;DHT22;685;47.196;11.880;2023-05-07T14:01:59;20.60;99.90
1383;DHT22;685;47.196;11.880;2023-05-07T14:04:26;20.60;99.90
1383;DHT22;685;47.196;11.880;2023-05-07T14:06:53;20.60;99.90
1383;DHT22;685;47.196;11.880;2023-05-07T14:09:20;20.60;99.90
1383;DHT22;685;47.196;11.880;2023-05-07T14:11:47;20.60;99.90
1383;DHT22;685;47.196;11.880;2023-05-07T14:14:16;20.40;99.90
1383;DHT22;685;47.196;11.880;2023-05-07T14:16:43;20.30;99.90
1383;DHT22;685;47.196;11.880;2023-05-07T14:19:12;20.60;99.90
1383;DHT22;685;47.196;11.880;2023-05-07T14:21:39;20.80;99.90
1383;DHT22;685;47.196;11.880;2023-05-07T14:24:07;20.70;99.90
1383;DHT22;685;47.196;11.880;2023-05-07T14:26:34;20.90;99.90
1383;DHT22;685;47.196;11.880;2023-05-07T14:29:01;21.00;99.90
1383;DHT22;685;47.196;11.880;2023-05-07T14:31:29;21.00;99.90
1383;DHT22;685;47.196;11.880;2023-05-07T14:33:55;21.10;99.90
1383;DHT22;685;47.196;11.880;2023-05-07T14:36:25;21.10;99.90
1383;DHT22;685;47.196;11.880;2023-05-07T14:38:53;21.10;99.90
1383;DHT22;685;47.196;11.880;2023-05-07T14:41:20;21.10;99.90
1383;DHT22;685;47.196;11.880;2023-05-07T14:43:47;21.40;99.90
1383;DHT22;685;47.196;11.880;2023-05-07T14:46:16;21.20;99.90
1383;DHT22;685;47.196;11.880;2023-05-07T14:48:43;21.20;99.90
1383;DHT22;685;47.196;11.880;2023-05-07T14:51:11;21.40;99.90
1383;DHT22;685;47.196;11.880;2023-05-07T14:53:40;21.30;99.90
1383;DHT22;685;47.196;11.880;2023-05-07T14:56:08;21.40;99.90
1383;DHT22;685;47.196;11.880;2023-05-07T14:58:35;21.40;99.90
1383;DHT22;685;47.196;11.880;2023-05-07T15:01:03;21.20;99.90
1383;DHT22;685;47.196;11.880;2023-05-07T15:03:30;21.20;99.90
1383;DHT22;685;47.196;11.880;2023-05-07T15:05:56;21.00;99.90
1383;DHT22;685;47.196;11.880;2023-05-07T15:08:23;21.00;99.90
1383;DHT22;685;47.196;11.880;2023-05-07T15:10:52;20.80;99.90
1383;DHT22;685;47.196;11.880;2023-05-07T15:13:19;20.80;99.90
1383;DHT22;685;47.196;11.880;2023-05-07T15:15:46;20.80;99.90
1383;DHT22;685;47.196;11.880;2023-05-07T15:18:14;20.70;99.90
1383;DHT22;685;47.196;11.880;2023-05-07T15:20:42;20.60;99.90
1383;DHT22;685;47.196;11.880;2023-05-07T15:23:09;20.60;99.90
1383;DHT22;685;47.196;11.880;2023-05-07T15:25:37;20.50;99.90
1383;DHT22;685;47.196;11.880;2023-05-07T15:28:05;20.40;99.90
1383;DHT22;685;47.196;11.880;2023-05-07T15:30:32;20.40;99.90
1383;DHT22;685;47.196;11.880;2023-05-07T15:33:00;20.40;99.90
1383;DHT22;685;47.196;11.880;2023-05-07T15:35:27;20.40;99.90
1383;DHT22;685;47.196;11.880;2023-05-07T15:37:54;20.40;99.90
1383;DHT22;685;47.196;11.880;2023-05-07T15:40:21;20.30;99.90
1383;DHT22;685;47.196;11.880;2023-05-07T15:42:48;20.30;99.90
1383;DHT22;685;47.196;11.880;2023-05-07T15:45:16;20.30;99.90
1383;DHT22;685;47.196;11.880;2023-05-07T15:47:43;20.30;99.90
1383;DHT22;685;47.196;11.880;2023-05-07T15:50:10;20.30;99.90
1383;DHT22;685;47.196;11.880;2023-05-07T15:52:37;20.20;99.90
1383;DHT22;685;47.196;11.880;2023-05-07T15:55:06;20.30;99.90
1383;DHT22;685;47.196;11.880;2023-05-07T15:57:33;20.30;99.90
1383;DHT22;685;47.196;11.880;2023-05-07T16:00:01;20.20;99.90
1383;DHT22;685;47.196;11.880;2023-05-07T16:02:32;20.30;99.90
1383;DHT22;685;47.196;11.880;2023-05-07T16:04:59;20.20;99.90
1383;DHT22;685;47.196;11.880;2023-05-07T16:07:26;20.40;99.90
1383;DHT22;685;47.196;11.880;2023-05-07T16:09:53;20.30;99.90